createdAt,value
2023-04-29T00:01:13.699Z,33.30
2023-04-29T00:03:42.409Z,33.60
2023-04-29T00:06:13.680Z,33.50
2023-04-29T00:08:41.949Z,33.30
2023-04-29T00:11:11.967Z,33.40
2023-04-29T00:13:40.994Z,33.70
2023-04-29T00:16:10.124Z,33.70
2023-04-29T00:18:38.533Z,33.90
2023-04-29T00:21:06.872Z,33.40
2023-04-29T00:23:35.050Z,33.50
2023-04-29T00:26:09.251Z,33.90
2023-04-29T00:28:38.577Z,34.00
2023-04-29T00:31:06.942Z,33.90
2023-04-29T00:33:34.995Z,34.00
2023-04-29T00:36:03.358Z,33.60
2023-04-29T00:38:31.357Z,33.30
2023-04-29T00:40:59.520Z,33.40
2023-04-29T00:43:27.615Z,33.40
2023-04-29T00:45:57.730Z,33.00
2023-04-29T00:48:26.516Z,33.60
2023-04-29T00:50:54.560Z,33.50
2023-04-29T00:53:23.724Z,32.70
2023-04-29T00:55:52.936Z,33.50
2023-04-29T00:58:22.183Z,33.30
2023-04-29T01:00:50.915Z,33.10
2023-04-29T01:03:20.646Z,33.20
2023-04-29T01:05:57.982Z,33.30
2023-04-29T01:08:38.265Z,33.00
2023-04-29T01:11:11.675Z,33.00
2023-04-29T01:13:50.566Z,33.00
2023-04-29T01:16:26.455Z,32.50
2023-04-29T01:19:03.660Z,32.60
2023-04-29T01:21:32.043Z,32.60
2023-04-29T01:24:01.883Z,33.70
2023-04-29T01:26:33.133Z,33.80
2023-04-29T01:29:24.764Z,34.00
2023-04-29T01:32:02.496Z,33.80
2023-04-29T01:34:36.454Z,34.00
2023-04-29T01:37:13.930Z,34.10
2023-04-29T01:40:06.722Z,34.30
2023-04-29T01:42:40.698Z,34.50
2023-04-29T01:45:12.182Z,34.50
2023-04-29T01:47:40.892Z,34.90
2023-04-29T01:50:10.006Z,35.00
2023-04-29T01:52:38.333Z,34.70
2023-04-29T01:55:09.560Z,34.60
2023-04-29T01:57:37.686Z,34.70
2023-04-29T02:00:07.703Z,33.80
2023-04-29T02:02:36.390Z,34.80
2023-04-29T02:05:04.640Z,34.50
2023-04-29T02:07:33.019Z,34.60
2023-04-29T02:10:01.103Z,34.50
2023-04-29T02:12:30.732Z,34.60
2023-04-29T02:15:00.306Z,34.70
2023-04-29T02:17:28.531Z,34.70
2023-04-29T02:19:56.900Z,34.70
2023-04-29T02:22:25.205Z,34.10
2023-04-29T02:24:53.323Z,34.60
2023-04-29T02:27:21.389Z,34.70
2023-04-29T02:29:51.584Z,34.70
2023-04-29T02:32:21.057Z,35.00
2023-04-29T02:34:49.428Z,34.70
2023-04-29T02:37:17.586Z,35.30
2023-04-29T02:39:45.744Z,34.50
2023-04-29T02:42:14.172Z,35.10
2023-04-29T02:44:42.512Z,34.60
2023-04-29T02:47:12.114Z,35.00
2023-04-29T02:49:40.390Z,35.30
2023-04-29T02:52:08.526Z,35.30
2023-04-29T02:54:36.701Z,34.90
2023-04-29T02:57:05.008Z,35.00
2023-04-29T02:59:33.185Z,35.20
2023-04-29T03:02:01.888Z,35.60
2023-04-29T03:04:31.659Z,35.50
2023-04-29T03:06:59.789Z,35.70
2023-04-29T03:09:28.292Z,35.90
2023-04-29T03:11:56.552Z,35.70
2023-04-29T03:14:24.782Z,35.70
2023-04-29T03:16:52.935Z,35.90
2023-04-29T03:19:21.144Z,36.00
2023-04-29T03:21:52.207Z,35.90
2023-04-29T03:24:22.110Z,36.30
2023-04-29T03:26:50.198Z,36.00
2023-04-29T03:29:18.353Z,35.30
2023-04-29T03:31:47.199Z,36.20
2023-04-29T03:34:15.560Z,36.80
2023-04-29T03:36:43.892Z,36.30
2023-04-29T03:39:13.510Z,36.50
2023-04-29T03:41:41.600Z,36.20
2023-04-29T03:44:09.837Z,36.70
2023-04-29T03:46:38.092Z,36.70
2023-04-29T03:49:06.469Z,36.70
2023-04-29T03:51:34.655Z,37.00
2023-04-29T03:54:02.932Z,36.80
2023-04-29T03:56:32.428Z,36.90
2023-04-29T03:59:00.697Z,36.80
2023-04-29T04:01:28.998Z,37.10
2023-04-29T04:03:57.958Z,37.80
2023-04-29T04:06:26.238Z,37.20
2023-04-29T04:08:54.422Z,37.20
2023-04-29T04:11:22.648Z,37.30
2023-04-29T04:13:52.157Z,37.70
2023-04-29T04:16:20.372Z,37.00
2023-04-29T04:18:48.530Z,38.10
2023-04-29T04:21:16.661Z,37.80
2023-04-29T04:23:44.812Z,37.80
2023-04-29T04:26:12.912Z,37.70
2023-04-29T04:28:41.029Z,37.80
2023-04-29T04:31:10.628Z,37.70
2023-04-29T04:33:38.805Z,38.00
2023-04-29T04:36:07.882Z,38.00
2023-04-29T04:38:36.085Z,38.00
2023-04-29T04:41:07.585Z,37.80
2023-04-29T04:43:35.668Z,38.10
2023-04-29T04:46:13.177Z,38.00
2023-04-29T04:48:41.807Z,37.80
2023-04-29T04:51:10.951Z,37.20
2023-04-29T04:53:39.477Z,38.00
2023-04-29T04:56:08.679Z,37.90
2023-04-29T04:58:36.730Z,38.30
2023-04-29T05:01:04.994Z,38.10
2023-04-29T05:03:34.802Z,38.20
2023-04-29T05:06:03.032Z,38.20
2023-04-29T05:08:31.170Z,38.60
2023-04-29T05:10:59.396Z,38.40
2023-04-29T05:13:27.445Z,37.80
2023-04-29T05:15:56.249Z,38.80
2023-04-29T05:18:24.370Z,38.10
2023-04-29T05:20:53.851Z,38.60
2023-04-29T05:23:23.084Z,38.60
2023-04-29T05:25:51.202Z,38.70
2023-04-29T05:28:19.328Z,38.50
2023-04-29T05:30:48.377Z,38.90
2023-04-29T05:33:16.509Z,39.00
2023-04-29T05:35:44.644Z,38.70
2023-04-29T05:38:14.176Z,38.80
2023-04-29T05:40:42.336Z,39.10
2023-04-29T05:43:11.347Z,39.20
2023-04-29T05:45:39.368Z,38.70
2023-04-29T05:48:07.822Z,39.30
2023-04-29T05:50:36.580Z,39.10
2023-04-29T05:53:04.688Z,39.00
2023-04-29T05:55:34.157Z,38.80
2023-04-29T05:58:02.382Z,39.10
2023-04-29T06:00:31.720Z,39.00
2023-04-29T06:03:00.039Z,39.20
2023-04-29T06:05:28.775Z,39.00
2023-04-29T06:07:57.131Z,39.10
2023-04-29T06:10:25.111Z,39.20
2023-04-29T06:12:54.454Z,38.70
2023-04-29T06:15:22.742Z,39.40
2023-04-29T06:17:50.901Z,39.10
2023-04-29T06:20:19.680Z,39.20
2023-04-29T06:22:47.741Z,39.30
2023-04-29T06:25:16.329Z,39.50
2023-04-29T06:27:44.612Z,38.90
2023-04-29T06:30:14.754Z,39.10
2023-04-29T06:32:43.074Z,38.80
2023-04-29T06:35:11.406Z,38.80
2023-04-29T06:37:39.656Z,39.00
2023-04-29T06:40:09.736Z,39.00
2023-04-29T06:42:38.155Z,38.90
2023-04-29T06:45:08.089Z,39.20
2023-04-29T06:47:38.011Z,39.20
2023-04-29T06:50:07.552Z,38.90
2023-04-29T06:52:35.505Z,39.00
2023-04-29T06:55:03.797Z,38.90
2023-04-29T06:57:32.692Z,38.40
2023-04-29T07:00:00.812Z,39.20
2023-04-29T07:02:28.955Z,39.00
2023-04-29T07:04:58.715Z,38.90
2023-04-29T07:07:26.845Z,38.80
2023-04-29T07:09:55.380Z,39.20
2023-04-29T07:12:23.840Z,38.60
2023-04-29T07:14:52.490Z,38.80
2023-04-29T07:17:20.834Z,38.30
2023-04-29T07:19:49.266Z,38.60
2023-04-29T07:22:19.508Z,38.30
2023-04-29T07:24:47.809Z,38.50
2023-04-29T07:27:16.416Z,38.40
2023-04-29T07:29:44.736Z,38.40
2023-04-29T07:32:13.512Z,38.00
2023-04-29T07:34:41.997Z,37.90
2023-04-29T07:37:12.891Z,37.80
2023-04-29T07:39:42.824Z,38.20
2023-04-29T07:42:11.109Z,38.20
2023-04-29T07:44:39.639Z,37.60
2023-04-29T07:47:07.889Z,37.50
2023-04-29T07:49:36.221Z,37.30
2023-04-29T07:52:06.180Z,38.50
2023-04-29T07:54:34.407Z,38.10
2023-04-29T07:57:04.791Z,38.10
2023-04-29T07:59:33.347Z,38.30
2023-04-29T08:02:01.522Z,37.40
2023-04-29T08:04:30.164Z,38.10
2023-04-29T08:06:58.990Z,38.10
2023-04-29T08:09:27.292Z,38.60
2023-04-29T08:11:55.514Z,38.60
2023-04-29T08:14:25.052Z,39.00
2023-04-29T08:16:54.367Z,39.70
2023-04-29T08:19:22.951Z,40.10
2023-04-29T08:21:52.010Z,39.90
2023-04-29T08:24:20.867Z,39.90
2023-04-29T08:26:49.087Z,40.40
2023-04-29T08:29:17.384Z,40.30
2023-04-29T08:31:46.915Z,39.50
2023-04-29T08:34:15.580Z,40.00
2023-04-29T08:36:43.806Z,40.20
2023-04-29T08:39:12.233Z,39.70
2023-04-29T08:41:40.759Z,39.80
2023-04-29T08:44:08.883Z,39.20
2023-04-29T08:46:37.478Z,39.20
2023-04-29T08:49:07.961Z,35.60
2023-04-29T08:51:36.288Z,32.30
2023-04-29T08:54:04.559Z,28.20
2023-04-29T08:56:33.397Z,26.60
2023-04-29T08:59:04.203Z,27.30
2023-04-29T09:01:32.637Z,27.00
2023-04-29T09:04:11.060Z,26.40
2023-04-29T09:06:39.198Z,26.50
2023-04-29T09:09:08.371Z,26.60
2023-04-29T09:11:38.085Z,26.70
2023-04-29T09:14:06.502Z,26.70
2023-04-29T09:16:35.386Z,26.80
2023-04-29T09:19:03.586Z,26.40
2023-04-29T09:21:33.127Z,26.30
2023-04-29T09:24:03.496Z,26.20
2023-04-29T09:26:43.770Z,26.60
2023-04-29T09:29:13.932Z,26.40
2023-04-29T09:31:43.040Z,26.80
2023-04-29T09:34:12.946Z,26.80
2023-04-29T09:36:46.001Z,27.00
2023-04-29T09:39:16.520Z,26.50
2023-04-29T09:42:00.257Z,26.70
2023-04-29T09:44:34.454Z,26.20
2023-04-29T09:47:04.539Z,26.60
2023-04-29T09:49:37.363Z,26.80
2023-04-29T09:52:09.680Z,27.10
2023-04-29T09:54:40.690Z,27.20
2023-04-29T09:57:10.830Z,26.90
2023-04-29T09:59:41.574Z,26.90
2023-04-29T10:02:16.432Z,31.00
2023-04-29T10:04:48.208Z,30.50
2023-04-29T10:07:19.076Z,30.20
2023-04-29T10:09:48.570Z,30.30
2023-04-29T10:12:19.120Z,30.40
2023-04-29T10:14:55.006Z,30.10
2023-04-29T10:17:38.221Z,30.20
2023-04-29T10:20:08.284Z,30.60
2023-04-29T10:22:46.983Z,30.60
2023-04-29T10:25:17.672Z,30.80
2023-04-29T10:27:47.187Z,30.70
2023-04-29T10:30:17.738Z,30.90
2023-04-29T10:32:51.681Z,31.70
2023-04-29T10:35:23.604Z,30.60
2023-04-29T10:37:54.672Z,30.70
2023-04-29T10:40:29.418Z,30.90
2023-04-29T10:42:58.251Z,31.10
2023-04-29T10:45:28.610Z,30.70
2023-04-29T10:48:27.384Z,30.90
2023-04-29T10:51:05.979Z,30.70
2023-04-29T10:53:35.625Z,31.00
2023-04-29T10:56:11.038Z,31.70
2023-04-29T10:58:47.274Z,30.70
2023-04-29T11:01:17.857Z,30.70
2023-04-29T11:04:01.071Z,30.70
2023-04-29T11:06:42.238Z,30.70
2023-04-29T11:09:15.220Z,30.70
2023-04-29T11:11:45.340Z,31.00
2023-04-29T11:14:15.975Z,31.00
2023-04-29T11:16:53.994Z,31.00
2023-04-29T11:19:25.235Z,30.80
2023-04-29T11:22:11.912Z,30.70
2023-04-29T11:24:53.185Z,30.80
2023-04-29T11:27:25.408Z,30.70
2023-04-29T11:29:59.261Z,30.70
2023-04-29T11:32:28.656Z,30.70
2023-04-29T11:34:58.640Z,31.00
2023-04-29T11:37:28.047Z,31.00
2023-04-29T11:40:02.191Z,30.80
2023-04-29T11:42:30.712Z,30.70
2023-04-29T11:45:00.410Z,31.20
2023-04-29T11:47:30.343Z,31.50
2023-04-29T11:50:06.833Z,31.20
2023-04-29T11:52:36.936Z,31.40
2023-04-29T11:55:08.463Z,31.60
2023-04-29T11:57:37.490Z,31.40
2023-04-29T12:00:09.132Z,31.70
2023-04-29T12:02:37.653Z,31.90
2023-04-29T12:05:12.969Z,32.50
2023-04-29T12:07:41.592Z,33.80
2023-04-29T12:10:12.925Z,34.70
2023-04-29T12:12:43.672Z,34.50
2023-04-29T12:15:13.029Z,34.20
2023-04-29T12:17:42.000Z,34.00
2023-04-29T12:20:12.038Z,33.80
2023-04-29T12:22:40.604Z,34.20
2023-04-29T12:25:12.136Z,33.20
2023-04-29T12:27:43.033Z,34.00
2023-04-29T12:30:12.570Z,34.20
2023-04-29T12:32:41.489Z,34.10
2023-04-29T12:35:17.695Z,34.00
2023-04-29T12:37:51.401Z,34.00
2023-04-29T12:40:23.558Z,34.00
2023-04-29T12:42:51.688Z,33.80
2023-04-29T12:45:31.044Z,33.60
2023-04-29T12:48:00.707Z,33.00
2023-04-29T12:50:34.369Z,33.00
2023-04-29T12:53:04.666Z,32.70
2023-04-29T12:55:35.559Z,32.50
2023-04-29T12:58:03.971Z,32.70
2023-04-29T13:00:32.214Z,32.80
2023-04-29T13:03:00.509Z,33.10
2023-04-29T13:05:29.056Z,32.60
2023-04-29T13:07:57.444Z,32.50
2023-04-29T13:10:25.624Z,32.30
2023-04-29T13:12:55.033Z,32.10
2023-04-29T13:15:23.231Z,32.00
2023-04-29T13:17:51.584Z,31.40
2023-04-29T13:20:20.504Z,31.30
2023-04-29T13:22:48.995Z,31.20
2023-04-29T13:25:16.954Z,30.90
2023-04-29T13:27:45.125Z,30.70
2023-04-29T13:30:14.893Z,31.00
2023-04-29T13:32:49.441Z,30.60
2023-04-29T13:35:19.624Z,30.50
2023-04-29T13:37:48.079Z,30.00
2023-04-29T13:40:20.456Z,30.00
2023-04-29T13:42:50.504Z,30.20
2023-04-29T13:45:22.577Z,30.40
2023-04-29T13:50:47.188Z,29.90
2023-04-29T13:53:41.285Z,30.00
2023-04-29T14:01:25.543Z,30.00
2023-04-29T14:03:49.098Z,30.00
2023-04-29T14:06:17.237Z,30.00
2023-04-29T14:08:46.398Z,29.60
2023-04-29T14:11:14.528Z,30.00
2023-04-29T14:13:42.510Z,29.60
2023-04-29T14:16:12.189Z,29.80
2023-04-29T14:18:40.278Z,29.80
2023-04-29T14:21:08.999Z,29.80
2023-04-29T14:23:36.985Z,29.80
2023-04-29T14:26:17.225Z,29.70
2023-04-29T14:28:57.160Z,29.70
2023-04-29T14:31:27.863Z,29.50
2023-04-29T14:33:56.420Z,29.60
2023-04-29T14:36:24.586Z,29.70
2023-04-29T14:38:52.582Z,29.80
2023-04-29T14:41:21.546Z,29.70
2023-04-29T14:43:49.542Z,29.80
2023-04-29T14:46:17.798Z,29.60
2023-04-29T14:48:47.165Z,29.90
2023-04-29T14:51:15.324Z,29.60
2023-04-29T14:53:43.380Z,30.00
2023-04-29T14:56:11.422Z,29.80
2023-04-29T14:58:39.394Z,29.70
2023-04-29T15:01:07.438Z,29.90
2023-04-29T15:03:43.702Z,30.00
2023-04-29T15:06:14.207Z,30.00
2023-04-29T15:08:42.303Z,30.00
2023-04-29T15:11:10.290Z,30.10
2023-04-29T15:13:38.416Z,30.20
2023-04-29T15:16:08.294Z,30.20
2023-04-29T15:18:36.527Z,30.30
2023-04-29T15:21:05.226Z,30.70
2023-04-29T15:23:34.604Z,30.60
2023-04-29T15:26:02.778Z,30.70
2023-04-29T15:28:30.720Z,30.70
2023-04-29T15:30:59.822Z,30.50
2023-04-29T15:33:27.964Z,30.30
2023-04-29T15:35:57.628Z,30.70
2023-04-29T15:38:25.732Z,30.30
2023-04-29T15:41:00.438Z,30.20
2023-04-29T15:43:28.852Z,30.40
2023-04-29T15:45:57.248Z,30.50
2023-04-29T15:48:25.784Z,30.60
2023-04-29T15:50:54.360Z,30.60
2023-04-29T15:53:23.176Z,30.60
2023-04-29T15:55:51.506Z,30.50
2023-04-29T15:58:20.904Z,30.40
2023-04-29T16:00:49.155Z,30.70
2023-04-29T16:03:17.381Z,30.50
2023-04-29T16:05:45.464Z,30.80
2023-04-29T16:08:13.566Z,30.80
2023-04-29T16:10:41.842Z,30.60
2023-04-29T16:13:09.993Z,30.80
2023-04-29T16:15:39.939Z,30.60
2023-04-29T16:18:08.291Z,30.40
2023-04-29T16:20:36.484Z,30.80
2023-04-29T16:23:04.646Z,30.70
2023-04-29T16:25:32.905Z,31.00
2023-04-29T16:28:01.050Z,30.90
2023-04-29T16:30:29.284Z,31.20
2023-04-29T16:32:58.798Z,31.10
2023-04-29T16:35:29.011Z,31.00
2023-04-29T16:37:57.205Z,31.10
2023-04-29T16:40:25.464Z,30.90
2023-04-29T16:42:54.277Z,31.20
2023-04-29T16:45:23.840Z,31.10
2023-04-29T16:47:52.394Z,31.00
2023-04-29T16:50:22.030Z,31.00
2023-04-29T16:52:50.463Z,31.40
2023-04-29T16:55:18.894Z,31.40
2023-04-29T16:57:47.055Z,31.40
2023-04-29T17:00:15.774Z,31.60
2023-04-29T17:02:45.902Z,31.10
2023-04-29T17:05:14.387Z,31.00
2023-04-29T17:07:44.312Z,31.30
2023-04-29T17:10:13.037Z,31.50
2023-04-29T17:12:41.549Z,31.20
2023-04-29T17:15:10.969Z,31.10
2023-04-29T17:17:39.062Z,31.10
2023-04-29T17:20:09.160Z,31.50
2023-04-29T17:22:37.298Z,31.10
2023-04-29T17:25:09.096Z,31.00
2023-04-29T17:27:37.575Z,31.10
2023-04-29T17:30:07.487Z,31.20
2023-04-29T17:32:39.060Z,31.40
2023-04-29T17:35:09.681Z,31.10
2023-04-29T17:37:37.993Z,31.20
2023-04-29T17:40:09.578Z,31.40
2023-04-29T17:42:37.789Z,31.40
2023-04-29T17:45:07.692Z,31.20
2023-04-29T17:47:36.065Z,31.30
2023-04-29T17:50:04.345Z,31.30
2023-04-29T17:52:32.537Z,31.30
2023-04-29T17:55:00.838Z,31.50
2023-04-29T17:57:30.295Z,31.50
2023-04-29T17:59:58.566Z,31.60
2023-04-29T18:02:27.521Z,31.00
2023-04-29T18:04:56.092Z,31.40
2023-04-29T18:07:24.258Z,31.10
2023-04-29T18:09:52.793Z,31.40
2023-04-29T18:12:21.476Z,31.60
2023-04-29T18:14:51.900Z,31.40
2023-04-29T18:17:23.208Z,31.50
2023-04-29T18:19:51.395Z,31.60
2023-04-29T18:22:19.538Z,31.70
2023-04-29T18:24:48.415Z,31.50
2023-04-29T18:27:16.710Z,31.70
2023-04-29T18:29:46.127Z,31.70
2023-04-29T18:32:15.785Z,31.30
2023-04-29T18:34:43.964Z,31.50
2023-04-29T18:37:12.061Z,31.70
2023-04-29T18:39:40.208Z,31.70
2023-04-29T18:42:08.508Z,31.80
2023-04-29T18:44:36.750Z,31.70
2023-04-29T18:47:04.840Z,31.70
2023-04-29T18:49:35.927Z,31.50
2023-04-29T18:52:06.483Z,31.70
2023-04-29T18:54:34.628Z,32.10
2023-04-29T18:57:02.673Z,32.10
2023-04-29T18:59:30.781Z,31.70
2023-04-29T19:01:58.956Z,32.30
2023-04-29T19:04:27.310Z,32.10
2023-04-29T19:06:58.109Z,32.00
2023-04-29T19:09:26.248Z,31.90
2023-04-29T19:11:54.577Z,32.10
2023-04-29T19:14:22.719Z,32.30
2023-04-29T19:16:50.813Z,32.20
2023-04-29T19:19:18.991Z,32.10
2023-04-29T19:21:47.116Z,32.10
2023-04-29T19:24:16.584Z,32.20
2023-04-29T19:26:45.183Z,32.20
2023-04-29T19:29:13.326Z,32.30
2023-04-29T19:31:41.516Z,32.30
2023-04-29T19:34:09.673Z,32.20
2023-04-29T19:36:38.203Z,32.20
2023-04-29T19:39:12.494Z,32.10
2023-04-29T19:41:41.930Z,32.40
2023-04-29T19:44:09.997Z,33.00
2023-04-29T19:46:38.114Z,33.10
2023-04-29T19:49:06.252Z,33.00
2023-04-29T19:51:34.336Z,33.50
2023-04-29T19:54:03.321Z,33.50
2023-04-29T19:56:32.057Z,33.00
2023-04-29T19:59:01.442Z,32.70
2023-04-29T20:01:29.583Z,33.40
2023-04-29T20:03:57.730Z,33.50
2023-04-29T20:06:27.184Z,33.50
2023-04-29T20:08:56.129Z,33.30
2023-04-29T20:11:24.661Z,34.00
2023-04-29T20:13:53.090Z,33.50
2023-04-29T20:16:23.363Z,33.60
2023-04-29T20:18:51.515Z,34.00
2023-04-29T20:21:19.518Z,34.30
2023-04-29T20:23:48.142Z,33.90
2023-04-29T20:26:17.839Z,34.30
2023-04-29T20:28:47.201Z,33.70
2023-04-29T20:31:15.901Z,33.80
2023-04-29T20:33:45.284Z,34.00
2023-04-29T20:36:13.367Z,34.20
2023-04-29T20:38:41.436Z,33.80
2023-04-29T20:41:09.480Z,34.90
2023-04-29T20:43:37.460Z,33.70
2023-04-29T20:46:05.548Z,34.00
2023-04-29T20:48:33.627Z,33.70
2023-04-29T20:51:03.028Z,33.80
2023-04-29T20:53:33.121Z,33.70
2023-04-29T20:56:01.207Z,32.40
2023-04-29T20:58:29.334Z,33.90
2023-04-29T21:00:57.540Z,33.50
2023-04-29T21:03:26.031Z,33.80
2023-04-29T21:05:55.001Z,33.70
2023-04-29T21:08:24.492Z,34.50
2023-04-29T21:10:52.670Z,33.70
2023-04-29T21:13:20.795Z,33.50
2023-04-29T21:15:49.008Z,33.60
2023-04-29T21:18:17.215Z,33.70
2023-04-29T21:20:46.212Z,33.60
2023-04-29T21:23:14.381Z,33.50
2023-04-29T21:25:43.980Z,33.40
2023-04-29T21:28:12.846Z,33.10
2023-04-29T21:30:41.712Z,33.60
2023-04-29T21:33:10.232Z,32.60
2023-04-29T21:35:39.748Z,33.50
2023-04-29T21:38:08.521Z,33.50
2023-04-29T21:40:40.831Z,33.60
2023-04-29T21:43:11.218Z,33.70
2023-04-29T21:45:40.018Z,33.50
2023-04-29T21:48:16.048Z,33.90
2023-04-29T21:50:44.845Z,33.90
2023-04-29T21:53:16.117Z,33.60
2023-04-29T21:55:44.904Z,33.60
2023-04-29T21:58:15.951Z,33.90
2023-04-29T22:00:57.914Z,33.40
2023-04-29T22:03:26.322Z,33.70
2023-04-29T22:05:54.652Z,33.50
2023-04-29T22:08:23.109Z,33.70
2023-04-29T22:10:51.308Z,33.50
2023-04-29T22:13:20.764Z,33.70
2023-04-29T22:15:48.972Z,33.60
2023-04-29T22:18:17.341Z,33.70
2023-04-29T22:20:45.700Z,33.50
2023-04-29T22:23:13.829Z,33.70
2023-04-29T22:25:41.875Z,33.70
2023-04-29T22:28:09.937Z,33.20
2023-04-29T22:30:39.338Z,33.70
2023-04-29T22:33:07.500Z,33.50
2023-04-29T22:35:35.606Z,33.50
2023-04-29T22:38:03.688Z,32.80
2023-04-29T22:40:31.826Z,33.40
2023-04-29T22:42:59.897Z,33.60
2023-04-29T22:45:28.152Z,33.70
2023-04-29T22:47:57.622Z,33.50
2023-04-29T22:50:25.819Z,33.50
2023-04-29T22:52:53.939Z,33.60
2023-04-29T22:55:22.205Z,33.40
2023-04-29T22:57:51.900Z,33.50
2023-04-29T23:00:20.301Z,33.70
2023-04-29T23:02:48.344Z,33.30
2023-04-29T23:05:17.824Z,33.70
2023-04-29T23:07:45.894Z,33.60
2023-04-29T23:10:13.934Z,33.60
2023-04-29T23:12:41.986Z,33.70
2023-04-29T23:15:10.820Z,33.70
2023-04-29T23:17:39.975Z,33.70
2023-04-29T23:20:09.564Z,32.80
2023-04-29T23:22:39.042Z,33.70
2023-04-29T23:25:08.110Z,34.00
2023-04-29T23:27:36.160Z,33.90
2023-04-29T23:30:05.076Z,34.00
2023-04-29T23:32:33.081Z,33.80
2023-04-29T23:35:01.392Z,33.60
2023-04-29T23:37:29.463Z,33.70
2023-04-29T23:39:59.151Z,32.80
2023-04-29T23:42:27.701Z,33.50
2023-04-29T23:44:56.256Z,33.80
2023-04-29T23:47:24.390Z,33.90
2023-04-29T23:49:52.554Z,33.80
2023-04-29T23:52:20.988Z,31.90
2023-04-29T23:54:49.153Z,32.20
2023-04-29T23:57:18.786Z,33.90
2023-04-29T23:59:46.857Z,32.40
